Marianna, Pennsylvania
Current Conditions -  °F | °C
As of 4:35 AM on Thursday 27 Nov 2014 (Local Time) from KAFJ Reporting Station
Overcast Overcast  
Wind Chill:   Ceiling: 1000
Heat Index:   Visibility: 4mi
Dew Point: -2°   Wind: 3mph
Humidity: 87%   Direction: 240°WSW
Pressure: 30"   Gusts: NA
Location:  40.02°N, 80.1°W
Report Text: KAFJ 270935Z 24003KT 4SM BKN010 OVC049 00/M02 A3000 RMK AO1
Loading
Personal Weather Stations






























Interactive Weather Map New forecast layout! Learn more

10-Day Weather Forecast

Advertisements
Track Severe Weather on mobile